Terminal Aerodrome Forecast
Issued by NWS St Louis, MO

Home | Current Version | Previous Version | Text Only | Print | Product List | Glossary Off
Versions: 1 2 3 4 5 6 7 8 9 10 11 12 13 14 15 16

000
FTUS43 KLSX 271000 AAB
TAFCOU
TAF AMD
KCOU 271018Z 2710/2806 28012KT P6SM OVC012
     FM271800 30010KT P6SM OVC040
     FM280200 30006KT P6SM SCT060=

USA.gov is the U.S. government's official web portal to all federal, state and local government web resources and services.